KCDR

Details ICAO KCDR (CDR)
Name CHADRON MUNI
Region United States
Timezone America/Denver (UTC-6.0)
Plans Departing 4
Arriving 0
Stats Elevation 3,297 ft / 1,005 m (AMSL)
Location 42.837169° -103.095685°
Runways 2
Magnetic Variation 7.335° E
Sunrise 2018-05-24 11:22:57 UTC / 2018-05-24 05:22:57 Local
Sunset 2018-05-25 02:18:25 UTC / 2018-05-24 20:18:25 Local
Advertisement - Login to hide

Runways

ID Width Length Bearing (true) Bearing (mag) Surface Threshold Offset Overrun Length
02 98 ft / 30 m 6,003 ft / 1,830 m 35.00° 27.66° Concrete 784 ft / 239 m 0 ft / 0 m
11 75 ft / 23 m 4,396 ft / 1,340 m 125.10° 117.76° Concrete 0 ft / 0 m 0 ft / 0 m
20 98 ft / 30 m 6,003 ft / 1,830 m 215.00° 207.66° Concrete 499 ft / 152 m 0 ft / 0 m
29 75 ft / 23 m 4,396 ft / 1,340 m 305.10° 297.76° Concrete 0 ft / 0 m 0 ft / 0 m

Map

Weather


0- 5 10 15 20 25 30 35+ Temperature / ° C

Clouds and Precipitation
Forecast for 2018-05-25 06:00 UTC. Updated 10 minutes ago

Ground ~20,000 ft ~40,000 ft Winds

METAR

KCDR 250453Z AUTO 26006KT 10SM CLR 16/13 A2995 RMK AO2 SLP122 T01560128

TAF

TAF KCDR 242320Z 2500/2524 27008KT P6SM FEW250 FM250200 28004KT P6SM SKC

Frequencies

Recorded 118.05 MHz ASOS
Unicom 122.80 MHz CTAF/UNICOM
Warning: Do not use this data for real-world aviation or navigation. No guarantee of current accuracy is given.